createdAt,value
2023-03-31T00:04:31.012Z,10.12
2023-03-31T00:10:17.318Z,9.98
2023-03-31T00:15:23.600Z,9.86
2023-03-31T00:20:55.257Z,9.79
2023-03-31T00:26:06.786Z,9.66
2023-03-31T00:31:12.287Z,9.54
2023-03-31T00:36:21.581Z,9.46
2023-03-31T00:42:46.538Z,9.44
2023-03-31T00:49:14.011Z,9.40
2023-03-31T00:55:10.557Z,9.44
2023-03-31T01:00:59.568Z,9.47
2023-03-31T01:06:08.273Z,9.50
2023-03-31T01:11:16.997Z,9.50
2023-03-31T01:16:31.462Z,9.48
2023-03-31T01:22:40.561Z,9.44
2023-03-31T01:29:21.374Z,9.49
2023-03-31T01:36:03.906Z,9.44
2023-03-31T01:43:03.155Z,9.31
2023-03-31T01:50:25.721Z,9.15
2023-03-31T01:56:28.916Z,9.01
2023-03-31T02:02:42.331Z,8.94
2023-03-31T02:08:50.114Z,8.95
2023-03-31T02:14:18.734Z,9.02
2023-03-31T02:19:48.792Z,9.11
2023-03-31T02:25:00.315Z,9.16
2023-03-31T02:32:13.178Z,9.18
2023-03-31T02:38:38.930Z,9.24
2023-03-31T02:44:44.967Z,9.21
2023-03-31T02:50:50.892Z,9.12
2023-03-31T02:57:49.031Z,9.03
2023-03-31T03:04:45.329Z,8.96
2023-03-31T03:11:36.259Z,9.02
2023-03-31T03:17:42.151Z,9.06
2023-03-31T03:24:24.001Z,9.04
2023-03-31T03:30:31.707Z,9.03
2023-03-31T03:37:24.777Z,9.02
2023-03-31T03:43:19.515Z,8.99
2023-03-31T03:49:29.175Z,9.02
2023-03-31T03:55:45.308Z,9.00
2023-03-31T04:01:02.418Z,8.85
2023-03-31T04:07:55.956Z,8.62
2023-03-31T04:13:58.317Z,8.39
2023-03-31T04:20:13.689Z,8.21
2023-03-31T04:25:23.165Z,8.08
2023-03-31T04:30:57.201Z,7.97
2023-03-31T04:37:14.141Z,7.82
2023-03-31T04:42:36.632Z,7.75
2023-03-31T04:47:44.811Z,7.67
2023-03-31T04:53:09.284Z,7.66
2023-03-31T04:58:40.917Z,7.62
2023-03-31T05:04:10.345Z,7.59
2023-03-31T05:10:18.543Z,7.60
2023-03-31T05:16:12.309Z,7.64
2023-03-31T05:21:39.812Z,7.72
2023-03-31T05:26:57.547Z,7.83
2023-03-31T05:32:18.483Z,7.91
2023-03-31T05:37:39.928Z,8.08
2023-03-31T05:42:43.154Z,8.26
2023-03-31T05:48:08.269Z,8.42
2023-03-31T05:53:54.241Z,8.63
2023-03-31T05:59:00.840Z,8.83
2023-03-31T06:04:33.820Z,9.14
2023-03-31T06:10:14.990Z,9.71
2023-03-31T06:15:41.654Z,10.30
2023-03-31T06:21:26.731Z,10.78
2023-03-31T06:26:44.772Z,10.89
2023-03-31T06:31:56.340Z,11.03
2023-03-31T06:37:41.583Z,11.16
2023-03-31T06:42:57.911Z,11.31
2023-03-31T06:48:05.126Z,11.52
2023-03-31T06:53:08.523Z,11.64
2023-03-31T06:58:12.416Z,11.83
2023-03-31T07:03:19.051Z,12.00
2023-03-31T07:08:36.216Z,12.08
2023-03-31T07:14:12.691Z,12.36
2023-03-31T07:19:25.530Z,12.60
2023-03-31T07:24:27.981Z,12.88
2023-03-31T07:29:30.313Z,13.32
2023-03-31T07:34:49.004Z,13.77
2023-03-31T07:40:05.136Z,14.07
2023-03-31T07:45:11.254Z,14.28
2023-03-31T07:50:15.199Z,14.43
2023-03-31T07:55:21.266Z,14.65
2023-03-31T08:00:35.127Z,14.86
2023-03-31T08:05:37.908Z,15.10
2023-03-31T08:10:50.979Z,15.36
2023-03-31T08:16:17.514Z,15.50
2023-03-31T08:21:32.608Z,15.63
2023-03-31T08:26:48.073Z,15.69
2023-03-31T08:31:50.551Z,15.52
2023-03-31T08:36:53.594Z,15.50
2023-03-31T08:42:02.571Z,15.52
2023-03-31T08:47:11.032Z,15.52
2023-03-31T08:52:19.006Z,15.50
2023-03-31T08:57:33.166Z,15.60
2023-03-31T09:03:05.009Z,15.75
2023-03-31T09:08:38.734Z,15.92
2023-03-31T09:14:02.784Z,16.20
2023-03-31T09:19:19.807Z,16.56
2023-03-31T09:24:44.800Z,16.61
2023-03-31T09:29:56.804Z,16.68
2023-03-31T09:35:14.550Z,16.75
2023-03-31T09:40:29.070Z,16.59
2023-03-31T09:45:34.007Z,16.36
2023-03-31T09:51:09.061Z,16.41
2023-03-31T09:56:11.694Z,16.73
2023-03-31T10:01:16.014Z,17.03
2023-03-31T10:06:19.041Z,17.06
2023-03-31T10:11:22.170Z,17.00
2023-03-31T10:16:30.207Z,16.83
2023-03-31T10:21:38.588Z,16.60
2023-03-31T10:26:47.089Z,16.49
2023-03-31T10:31:49.640Z,16.55
2023-03-31T10:37:21.527Z,16.60
2023-03-31T10:43:04.106Z,16.68
2023-03-31T10:48:50.300Z,16.82
2023-03-31T10:54:10.531Z,17.12
2023-03-31T11:00:11.253Z,17.10
2023-03-31T11:05:37.495Z,16.97
2023-03-31T11:10:47.852Z,16.92
2023-03-31T11:16:37.144Z,16.94
2023-03-31T11:22:19.747Z,16.73
2023-03-31T11:28:01.164Z,16.48
2023-03-31T11:34:12.104Z,16.36
2023-03-31T11:39:35.167Z,16.47
2023-03-31T11:44:54.813Z,16.69
2023-03-31T11:50:42.485Z,16.77
2023-03-31T11:56:56.808Z,16.68
2023-03-31T12:03:27.432Z,16.42
2023-03-31T12:09:36.962Z,16.42
2023-03-31T12:15:27.823Z,16.70
2023-03-31T12:20:38.370Z,17.08
2023-03-31T12:26:33.504Z,17.50
2023-03-31T12:31:43.563Z,17.99
2023-03-31T12:37:10.050Z,18.00
2023-03-31T12:42:54.961Z,17.80
2023-03-31T12:48:49.401Z,17.59
2023-03-31T12:54:50.174Z,17.46
2023-03-31T13:00:39.403Z,17.31
2023-03-31T13:07:02.492Z,17.01
2023-03-31T13:12:33.118Z,16.87
2023-03-31T13:18:00.668Z,16.77
2023-03-31T13:23:19.956Z,16.47
2023-03-31T13:28:42.428Z,16.13
2023-03-31T13:34:05.010Z,15.83
2023-03-31T13:40:07.602Z,15.60
2023-03-31T13:46:23.543Z,15.68
2023-03-31T13:52:02.333Z,15.68
2023-03-31T13:57:53.018Z,15.56
2023-03-31T14:03:51.429Z,15.42
2023-03-31T14:09:12.469Z,15.26
2023-03-31T14:14:19.485Z,15.10
2023-03-31T14:20:00.767Z,14.93
2023-03-31T14:26:23.931Z,14.75
2023-03-31T14:31:40.380Z,14.55
2023-03-31T14:37:17.741Z,14.39
2023-03-31T14:42:57.443Z,14.35
2023-03-31T14:48:16.477Z,14.30
2023-03-31T14:53:38.212Z,14.31
2023-03-31T14:58:50.152Z,14.32
2023-03-31T15:04:46.425Z,14.29
2023-03-31T15:09:56.414Z,14.39
2023-03-31T15:15:05.089Z,14.47
2023-03-31T15:20:35.447Z,14.81
2023-03-31T15:25:54.731Z,15.43
2023-03-31T15:31:09.613Z,15.71
2023-03-31T15:36:25.953Z,15.79
2023-03-31T15:41:41.646Z,15.83
2023-03-31T15:47:25.329Z,15.75
2023-03-31T15:52:35.197Z,15.53
2023-03-31T15:57:47.588Z,15.26
2023-03-31T16:03:05.765Z,15.04
2023-03-31T16:08:42.889Z,14.80
2023-03-31T16:14:23.053Z,14.61
2023-03-31T16:19:39.266Z,14.45
2023-03-31T16:24:46.792Z,14.39
2023-03-31T16:30:09.168Z,14.30
2023-03-31T16:35:19.884Z,14.22
2023-03-31T16:40:51.746Z,14.16
2023-03-31T16:46:04.182Z,14.13
2023-03-31T16:51:08.863Z,14.13
2023-03-31T16:56:15.364Z,14.15
2023-03-31T17:01:20.854Z,14.14
2023-03-31T17:06:47.550Z,14.12
2023-03-31T17:12:02.000Z,14.08
2023-03-31T17:17:07.601Z,13.84
2023-03-31T17:22:15.989Z,13.37
2023-03-31T17:28:04.319Z,12.66
2023-03-31T17:34:17.988Z,12.07
2023-03-31T17:40:18.572Z,11.73
2023-03-31T17:47:00.113Z,11.60
2023-03-31T17:53:28.421Z,11.50
2023-03-31T17:59:26.508Z,11.42
2023-03-31T18:04:55.036Z,11.35
2023-03-31T18:10:23.115Z,11.35
2023-03-31T18:16:49.283Z,11.30
2023-03-31T18:22:37.876Z,11.20
2023-03-31T18:29:02.858Z,11.05
2023-03-31T18:35:45.519Z,10.83
2023-03-31T18:42:25.677Z,10.70
2023-03-31T18:48:35.383Z,10.60
2023-03-31T18:55:29.232Z,10.55
2023-03-31T19:01:56.265Z,10.65
2023-03-31T19:08:11.156Z,10.82
2023-03-31T19:14:56.327Z,10.87
2023-03-31T19:21:50.382Z,10.86
2023-03-31T19:28:26.106Z,10.88
2023-03-31T19:35:09.820Z,10.95
2023-03-31T19:41:20.737Z,10.97
2023-03-31T19:47:54.310Z,10.89
2023-03-31T19:53:50.749Z,10.83
2023-03-31T19:59:33.926Z,10.84
2023-03-31T20:05:49.980Z,10.78
2023-03-31T20:11:54.879Z,10.83
2023-03-31T20:17:23.114Z,10.92
2023-03-31T20:23:54.099Z,11.00
2023-03-31T20:30:38.370Z,10.94
2023-03-31T20:37:05.309Z,10.96
2023-03-31T20:42:45.351Z,10.94
2023-03-31T20:49:31.602Z,10.90
2023-03-31T20:56:05.925Z,10.93
2023-03-31T21:01:37.410Z,10.96
2023-03-31T21:07:13.973Z,10.98
2023-03-31T21:13:18.481Z,10.99
2023-03-31T21:18:37.581Z,10.94
2023-03-31T21:23:53.985Z,10.89
2023-03-31T21:30:50.359Z,10.82
2023-03-31T21:36:45.316Z,10.63
2023-03-31T21:43:01.379Z,10.52
2023-03-31T21:49:43.352Z,10.33
2023-03-31T21:55:54.770Z,10.17
2023-03-31T22:02:35.773Z,10.02
2023-03-31T22:08:31.482Z,9.89
2023-03-31T22:15:15.601Z,9.78
2023-03-31T22:22:22.168Z,9.67
2023-03-31T22:28:38.009Z,9.59
2023-03-31T22:34:58.066Z,9.47
2023-03-31T22:40:33.687Z,9.46
2023-03-31T22:46:38.989Z,9.49
2023-03-31T22:52:17.842Z,9.47
2023-03-31T22:58:05.899Z,9.55
2023-03-31T23:04:11.770Z,9.50
2023-03-31T23:10:13.662Z,9.43
2023-03-31T23:17:03.607Z,9.32
2023-03-31T23:22:52.100Z,9.26
2023-03-31T23:29:09.783Z,9.19
2023-03-31T23:35:46.725Z,9.12
2023-03-31T23:42:27.859Z,9.09
2023-03-31T23:49:14.217Z,8.99
2023-03-31T23:55:26.152Z,8.95
